createdAt,value
2023-03-12T00:00:09.320Z,3.30
2023-03-12T00:02:40.832Z,3.25
2023-03-12T00:05:12.360Z,3.10
2023-03-12T00:07:43.785Z,3.33
2023-03-12T00:10:15.274Z,3.40
2023-03-12T00:12:46.940Z,3.80
2023-03-12T00:15:18.598Z,3.60
2023-03-12T00:17:50.294Z,3.27
2023-03-12T00:20:21.871Z,4.20
2023-03-12T00:22:53.335Z,3.83
2023-03-12T00:25:24.772Z,3.90
2023-03-12T00:27:56.233Z,3.67
2023-03-12T00:30:27.688Z,3.50
2023-03-12T00:32:59.189Z,3.70
2023-03-12T00:35:30.644Z,3.80
2023-03-12T00:38:02.071Z,4.05
2023-03-12T00:40:33.472Z,4.43
2023-03-12T00:43:05.243Z,4.30
2023-03-12T00:45:36.969Z,4.78
2023-03-12T00:48:08.383Z,4.40
2023-03-12T00:50:39.797Z,4.47
2023-03-12T00:53:11.227Z,4.25
2023-03-12T00:55:42.656Z,4.70
2023-03-12T00:58:14.039Z,4.50
2023-03-12T01:00:45.619Z,4.33
2023-03-12T01:03:17.180Z,4.57
2023-03-12T01:05:48.629Z,4.25
2023-03-12T01:08:21.695Z,4.18
2023-03-12T01:10:53.204Z,3.90
2023-03-12T01:13:24.825Z,4.18
2023-03-12T01:15:56.295Z,4.53
2023-03-12T01:18:27.838Z,3.92
2023-03-12T01:20:59.343Z,3.90
2023-03-12T01:23:30.908Z,3.90
2023-03-12T01:26:02.415Z,3.78
2023-03-12T01:28:33.832Z,3.80
2023-03-12T01:31:09.835Z,3.60
2023-03-12T01:33:41.446Z,3.92
2023-03-12T01:36:21.874Z,3.80
2023-03-12T01:38:55.746Z,3.63
2023-03-12T01:41:29.540Z,3.50
2023-03-12T01:44:02.844Z,3.70
2023-03-12T01:46:39.419Z,3.40
2023-03-12T01:49:40.128Z,3.80
2023-03-12T01:52:14.765Z,3.70
2023-03-12T01:55:01.520Z,3.70
2023-03-12T01:58:06.875Z,3.47
2023-03-12T02:00:38.293Z,3.47
2023-03-12T02:03:10.410Z,3.60
2023-03-12T02:05:53.094Z,4.03
2023-03-12T02:08:24.801Z,3.45
2023-03-12T02:10:56.286Z,3.90
2023-03-12T02:13:27.725Z,3.47
2023-03-12T02:15:59.632Z,3.70
2023-03-12T02:18:31.350Z,3.25
2023-03-12T02:21:25.140Z,3.60
2023-03-12T02:24:13.553Z,3.53
2023-03-12T02:26:45.412Z,3.47
2023-03-12T02:29:17.377Z,3.80
2023-03-12T02:31:54.891Z,4.00
2023-03-12T02:34:26.498Z,3.65
2023-03-12T02:36:58.047Z,3.85
2023-03-12T02:39:29.518Z,3.75
2023-03-12T02:42:01.043Z,3.88
2023-03-12T02:44:33.531Z,3.20
2023-03-12T02:47:05.564Z,3.50
2023-03-12T02:49:37.054Z,3.53
2023-03-12T02:52:08.537Z,3.70
2023-03-12T02:54:39.997Z,3.60
2023-03-12T02:57:11.484Z,3.53
2023-03-12T02:59:42.943Z,3.63
2023-03-12T03:02:14.394Z,3.45
2023-03-12T03:04:45.874Z,3.70
2023-03-12T03:07:17.386Z,3.42
2023-03-12T03:09:48.860Z,3.30
2023-03-12T03:12:20.327Z,3.05
2023-03-12T03:14:51.812Z,3.35
2023-03-12T03:17:23.498Z,3.33
2023-03-12T03:19:55.043Z,3.28
2023-03-12T03:22:26.568Z,3.50
2023-03-12T03:24:58.022Z,2.95
2023-03-12T03:27:29.476Z,3.38
2023-03-12T03:30:00.947Z,3.15
2023-03-12T03:32:32.400Z,3.60
2023-03-12T03:35:04.028Z,3.58
2023-03-12T03:37:35.547Z,3.50
2023-03-12T03:40:07.468Z,3.63
2023-03-12T03:42:39.819Z,3.42
2023-03-12T03:45:11.330Z,3.20
2023-03-12T03:47:42.768Z,3.92
2023-03-12T03:50:14.267Z,3.35
2023-03-12T03:52:45.754Z,3.65
2023-03-12T03:55:17.322Z,3.50
2023-03-12T03:57:48.842Z,3.50
2023-03-12T04:00:20.582Z,3.20
2023-03-12T04:02:52.044Z,3.88
2023-03-12T04:05:23.660Z,3.67
2023-03-12T04:07:56.200Z,3.80
2023-03-12T04:10:27.697Z,3.70
2023-03-12T04:12:59.123Z,4.25
2023-03-12T04:15:30.625Z,4.20
2023-03-12T04:18:02.115Z,4.60
2023-03-12T04:20:33.648Z,4.13
2023-03-12T04:23:05.083Z,4.50
2023-03-12T04:25:36.834Z,5.07
2023-03-12T04:28:08.790Z,5.32
2023-03-12T04:30:40.369Z,5.63
2023-03-12T04:33:11.830Z,5.68
2023-03-12T04:35:51.049Z,5.68
2023-03-12T04:38:23.937Z,6.00
2023-03-12T04:41:02.552Z,5.43
2023-03-12T04:43:34.794Z,5.85
2023-03-12T04:46:06.834Z,6.30
2023-03-12T04:48:38.407Z,6.50
2023-03-12T04:51:09.868Z,5.93
2023-03-12T04:53:41.356Z,6.10
2023-03-12T04:56:13.420Z,5.93
2023-03-12T04:58:44.889Z,6.47
2023-03-12T05:01:25.019Z,5.97
2023-03-12T05:03:56.523Z,6.60
2023-03-12T05:06:32.280Z,6.85
2023-03-12T05:09:03.770Z,6.53
2023-03-12T05:11:35.452Z,6.75
2023-03-12T05:14:06.949Z,6.72
2023-03-12T05:16:38.590Z,6.63
2023-03-12T05:19:10.120Z,7.20
2023-03-12T05:21:41.949Z,6.75
2023-03-12T05:24:13.493Z,6.72
2023-03-12T05:26:44.961Z,8.10
2023-03-12T05:29:16.419Z,8.13
2023-03-12T05:31:47.940Z,7.68
2023-03-12T05:34:19.387Z,7.63
2023-03-12T05:36:50.836Z,8.25
2023-03-12T05:39:22.776Z,8.50
2023-03-12T05:41:54.299Z,7.72
2023-03-12T05:44:26.568Z,8.32
2023-03-12T05:46:59.150Z,8.50
2023-03-12T05:49:31.117Z,9.40
2023-03-12T05:52:02.784Z,9.02
2023-03-12T05:54:34.257Z,9.60
2023-03-12T05:57:05.959Z,9.63
2023-03-12T05:59:37.515Z,11.13
2023-03-12T06:02:09.030Z,10.20
2023-03-12T06:04:40.489Z,12.48
2023-03-12T06:07:11.985Z,11.47
2023-03-12T06:09:43.483Z,11.40
2023-03-12T06:12:14.908Z,12.48
2023-03-12T06:14:46.370Z,11.55
2023-03-12T06:17:17.847Z,15.45
2023-03-12T06:19:53.088Z,15.67
2023-03-12T06:22:25.388Z,14.20
2023-03-12T06:24:56.914Z,15.52
2023-03-12T06:27:28.542Z,15.85
2023-03-12T06:29:59.986Z,17.02
2023-03-12T06:32:31.522Z,15.88
2023-03-12T06:35:03.056Z,16.88
2023-03-12T06:37:34.523Z,17.73
2023-03-12T06:40:06.769Z,18.35
2023-03-12T06:42:38.314Z,16.77
2023-03-12T06:45:10.158Z,16.17
2023-03-12T06:47:41.617Z,20.02
2023-03-12T06:50:13.079Z,20.20
2023-03-12T06:52:44.569Z,17.00
2023-03-12T06:55:16.027Z,20.05
2023-03-12T06:57:47.431Z,21.25
2023-03-12T07:00:19.405Z,23.23
2023-03-12T07:02:50.874Z,23.08
2023-03-12T07:05:23.261Z,21.70
2023-03-12T07:07:55.029Z,24.27
2023-03-12T07:10:26.640Z,22.88
2023-03-12T07:12:58.090Z,26.45
2023-03-12T07:15:29.658Z,28.98
2023-03-12T07:18:04.218Z,29.35
2023-03-12T07:20:41.149Z,27.03
2023-03-12T07:23:12.601Z,27.77
2023-03-12T07:25:44.834Z,27.60
2023-03-12T07:28:17.846Z,25.60
2023-03-12T07:30:49.319Z,26.20
2023-03-12T07:33:21.858Z,27.08
2023-03-12T07:35:53.526Z,24.25
2023-03-12T07:38:25.509Z,24.30
2023-03-12T07:40:58.247Z,22.58
2023-03-12T07:43:29.782Z,23.30
2023-03-12T07:46:01.444Z,23.70
2023-03-12T07:48:32.939Z,22.73
2023-03-12T07:51:04.834Z,22.93
2023-03-12T07:53:36.304Z,22.50
2023-03-12T07:56:08.069Z,23.58
2023-03-12T07:58:39.785Z,24.67
2023-03-12T08:01:11.416Z,27.30
2023-03-12T08:03:43.102Z,27.13
2023-03-12T08:06:14.860Z,29.75
2023-03-12T08:08:46.700Z,29.17
2023-03-12T08:11:18.577Z,27.17
2023-03-12T08:13:49.996Z,29.30
2023-03-12T08:16:21.417Z,32.85
2023-03-12T08:18:52.884Z,32.58
2023-03-12T08:21:24.642Z,31.00
2023-03-12T08:23:56.072Z,31.92
2023-03-12T08:26:27.631Z,30.42
2023-03-12T08:28:59.081Z,30.35
2023-03-12T08:31:30.571Z,29.27
2023-03-12T08:34:02.048Z,26.13
2023-03-12T08:36:33.544Z,22.50
2023-03-12T08:39:05.001Z,21.13
2023-03-12T08:41:36.464Z,18.92
2023-03-12T08:44:08.088Z,17.73
2023-03-12T08:46:39.554Z,15.70
2023-03-12T08:49:11.008Z,13.65
2023-03-12T08:51:42.515Z,12.55
2023-03-12T08:54:13.949Z,11.25
2023-03-12T08:56:45.451Z,9.25
2023-03-12T08:59:16.835Z,9.32
2023-03-12T09:01:48.413Z,9.63
2023-03-12T09:04:20.062Z,9.77
2023-03-12T09:06:51.515Z,8.30
2023-03-12T09:09:23.009Z,9.18
2023-03-12T09:11:54.644Z,8.20
2023-03-12T09:15:01.400Z,8.20
2023-03-12T09:17:17.910Z,7.47
2023-03-12T09:19:49.382Z,8.00
2023-03-12T09:22:20.778Z,8.52
2023-03-12T09:24:52.340Z,7.83
2023-03-12T09:27:23.753Z,7.57
2023-03-12T09:30:00.693Z,7.77
2023-03-12T09:32:32.558Z,7.35
2023-03-12T09:35:05.461Z,8.77
2023-03-12T09:37:36.922Z,8.48
2023-03-12T09:40:15.627Z,7.68
2023-03-12T09:42:52.819Z,8.13
2023-03-12T09:45:26.968Z,7.88
2023-03-12T09:48:04.482Z,8.38
2023-03-12T09:50:38.833Z,8.05
2023-03-12T09:53:27.182Z,8.55
2023-03-12T09:56:02.228Z,8.48
2023-03-12T09:58:38.399Z,9.27
2023-03-12T10:01:37.705Z,8.27
2023-03-12T10:04:18.416Z,9.15
2023-03-12T10:07:00.964Z,8.40
2023-03-12T10:09:38.001Z,8.93
2023-03-12T10:12:24.563Z,9.55
2023-03-12T10:15:25.962Z,8.77
2023-03-12T10:18:15.741Z,9.35
2023-03-12T10:20:47.223Z,9.45
2023-03-12T10:23:38.697Z,9.10
2023-03-12T10:26:28.889Z,8.50
2023-03-12T10:29:02.170Z,8.98
2023-03-12T10:31:48.255Z,8.88
2023-03-12T10:34:44.029Z,9.73
2023-03-12T10:37:51.993Z,10.48
2023-03-12T10:40:26.280Z,10.20
2023-03-12T10:42:57.887Z,9.52
2023-03-12T10:46:01.630Z,10.13
2023-03-12T10:48:33.098Z,8.70
2023-03-12T10:51:10.775Z,9.82
2023-03-12T10:53:45.122Z,9.30
2023-03-12T10:56:21.035Z,8.95
2023-03-12T10:58:53.882Z,8.32
2023-03-12T11:01:29.718Z,9.23
2023-03-12T11:04:18.292Z,9.38
2023-03-12T11:07:07.240Z,9.13
2023-03-12T11:09:38.798Z,9.30
2023-03-12T11:12:31.437Z,9.07
2023-03-12T11:15:36.851Z,9.33
2023-03-12T11:18:19.101Z,9.32
2023-03-12T11:20:53.966Z,10.18
2023-03-12T11:23:30.294Z,8.70
2023-03-12T11:26:05.382Z,8.77
2023-03-12T11:28:40.399Z,10.10
2023-03-12T11:31:26.611Z,9.03
2023-03-12T11:34:03.732Z,9.32
2023-03-12T11:37:12.936Z,9.40
2023-03-12T11:40:13.266Z,10.13
2023-03-12T11:43:02.993Z,10.07
2023-03-12T11:45:53.285Z,10.13
2023-03-12T11:48:36.525Z,10.40
2023-03-12T11:51:22.888Z,10.47
2023-03-12T11:54:32.593Z,9.82
2023-03-12T11:57:15.999Z,10.70
2023-03-12T12:00:03.462Z,10.07
2023-03-12T12:02:43.777Z,10.77
2023-03-12T12:05:43.173Z,9.63
2023-03-12T12:08:40.933Z,10.35
2023-03-12T12:11:18.003Z,10.18
2023-03-12T12:14:06.333Z,10.05
2023-03-12T12:16:43.788Z,10.15
2023-03-12T12:19:43.888Z,9.17
2023-03-12T12:22:32.715Z,10.47
2023-03-12T12:25:30.063Z,9.93
2023-03-12T12:28:13.633Z,10.18
2023-03-12T12:31:07.070Z,9.85
2023-03-12T12:33:58.585Z,10.07
2023-03-12T12:36:34.360Z,9.68
2023-03-12T12:39:15.949Z,10.18
2023-03-12T12:41:53.003Z,9.05
2023-03-12T12:44:31.247Z,9.33
2023-03-12T12:47:06.726Z,9.47
2023-03-12T12:49:52.976Z,9.55
2023-03-12T12:52:26.335Z,9.85
2023-03-12T12:55:14.332Z,8.97
2023-03-12T12:57:52.500Z,9.57
2023-03-12T13:00:29.802Z,8.35
2023-03-12T13:03:01.587Z,9.38
2023-03-12T13:05:46.944Z,8.68
2023-03-12T13:08:39.910Z,8.95
2023-03-12T13:11:18.670Z,9.25
2023-03-12T13:14:03.362Z,8.93
2023-03-12T13:16:45.048Z,8.38
2023-03-12T13:19:16.439Z,8.57
2023-03-12T13:22:33.061Z,8.65
2023-03-12T13:25:18.020Z,9.05
2023-03-12T13:27:58.615Z,8.82
2023-03-12T13:30:32.834Z,8.52
2023-03-12T13:33:10.631Z,9.25
2023-03-12T13:35:42.274Z,9.18
2023-03-12T13:38:35.052Z,8.82
2023-03-12T13:41:07.560Z,8.40
2023-03-12T13:43:38.949Z,8.75
2023-03-12T13:46:16.481Z,9.35
2023-03-12T13:48:49.511Z,9.70
2023-03-12T13:51:24.889Z,8.90
2023-03-12T13:54:01.256Z,8.60
2023-03-12T13:56:33.688Z,9.60
2023-03-12T13:59:13.669Z,9.32
2023-03-12T14:01:51.358Z,9.47
2023-03-12T14:04:33.830Z,9.23
2023-03-12T14:07:42.872Z,9.52
2023-03-12T14:10:23.028Z,9.33
2023-03-12T14:13:02.921Z,10.00
2023-03-12T14:15:40.114Z,9.10
2023-03-12T14:18:20.279Z,9.40
2023-03-12T14:21:15.041Z,10.30
2023-03-12T14:23:51.016Z,11.25
2023-03-12T14:26:29.036Z,11.80
2023-03-12T14:29:25.197Z,10.60
2023-03-12T14:32:02.205Z,10.70
2023-03-12T14:34:40.530Z,10.95
2023-03-12T14:37:36.467Z,11.43
2023-03-12T14:40:20.958Z,10.43
2023-03-12T14:42:52.510Z,10.65
2023-03-12T14:45:24.005Z,10.85
2023-03-12T14:47:57.826Z,10.77
2023-03-12T14:50:39.897Z,10.95
2023-03-12T14:53:19.332Z,9.73
2023-03-12T14:56:14.192Z,10.57
2023-03-12T14:58:48.970Z,11.00
2023-03-12T15:01:24.345Z,9.00
2023-03-12T15:04:00.148Z,10.40
2023-03-12T15:06:33.203Z,10.50
2023-03-12T15:09:07.122Z,11.63
2023-03-12T15:11:39.396Z,10.38
2023-03-12T15:14:17.050Z,10.67
2023-03-12T15:16:48.902Z,9.85
2023-03-12T15:19:26.189Z,10.48
2023-03-12T15:21:58.288Z,10.55
2023-03-12T15:24:38.570Z,10.18
2023-03-12T15:27:25.276Z,10.33
2023-03-12T15:29:58.883Z,10.73
2023-03-12T15:32:30.401Z,10.98
2023-03-12T15:35:13.494Z,11.60
2023-03-12T15:37:50.913Z,11.35
2023-03-12T15:40:25.252Z,11.10
2023-03-12T15:42:58.112Z,11.60
2023-03-12T15:45:36.266Z,11.05
2023-03-12T15:48:28.401Z,11.35
2023-03-12T15:51:00.445Z,11.55
2023-03-12T15:53:34.183Z,11.23
2023-03-12T15:56:11.656Z,12.05
2023-03-12T15:58:43.350Z,11.40
2023-03-12T16:01:25.963Z,11.32
2023-03-12T16:03:57.488Z,11.38
2023-03-12T16:06:28.916Z,12.57
2023-03-12T16:09:02.958Z,12.68
2023-03-12T16:11:36.994Z,13.77
2023-03-12T16:14:20.273Z,12.75
2023-03-12T16:16:51.952Z,13.60
2023-03-12T16:19:24.467Z,14.15
2023-03-12T16:21:55.975Z,13.60
2023-03-12T16:24:27.473Z,14.57
2023-03-12T16:26:59.619Z,15.00
2023-03-12T16:29:36.466Z,14.33
2023-03-12T16:32:16.220Z,14.43
2023-03-12T16:34:47.764Z,15.27
2023-03-12T16:37:19.249Z,15.10
2023-03-12T16:39:50.682Z,14.05
2023-03-12T16:42:22.156Z,15.90
2023-03-12T16:44:53.736Z,14.27
2023-03-12T16:47:25.548Z,15.23
2023-03-12T16:49:57.060Z,15.20
2023-03-12T16:52:28.524Z,13.88
2023-03-12T16:54:59.933Z,14.35
2023-03-12T16:57:36.893Z,13.00
2023-03-12T17:00:13.961Z,12.25
2023-03-12T17:02:45.602Z,12.23
2023-03-12T17:05:17.157Z,11.57
2023-03-12T17:07:48.578Z,10.75
2023-03-12T17:10:20.629Z,11.07
2023-03-12T17:12:53.541Z,10.70
2023-03-12T17:15:28.087Z,9.73
2023-03-12T17:18:00.157Z,9.53
2023-03-12T17:20:31.558Z,8.90
2023-03-12T17:23:04.415Z,7.28
2023-03-12T17:25:38.909Z,7.60
2023-03-12T17:28:11.233Z,7.43
2023-03-12T17:30:43.213Z,7.95
2023-03-12T17:33:16.845Z,6.65
2023-03-12T17:35:57.508Z,6.65
2023-03-12T17:38:29.545Z,6.68
2023-03-12T17:41:01.969Z,6.60
2023-03-12T17:43:34.088Z,6.93
2023-03-12T17:46:08.045Z,6.80
2023-03-12T17:48:39.466Z,6.63
2023-03-12T17:51:11.280Z,7.07
2023-03-12T17:53:42.698Z,6.90
2023-03-12T17:56:14.204Z,7.82
2023-03-12T17:58:45.821Z,7.50
2023-03-12T18:01:17.289Z,7.70
2023-03-12T18:03:48.832Z,7.70
2023-03-12T18:06:20.404Z,7.50
2023-03-12T18:08:51.844Z,7.45
2023-03-12T18:11:23.331Z,7.25
2023-03-12T18:13:54.789Z,7.40
2023-03-12T18:16:26.323Z,8.02
2023-03-12T18:18:57.973Z,8.40
2023-03-12T18:21:29.483Z,8.33
2023-03-12T18:24:11.766Z,8.38
2023-03-12T18:26:45.976Z,8.30
2023-03-12T18:29:17.748Z,8.38
2023-03-12T18:31:49.136Z,7.15
2023-03-12T18:34:20.630Z,7.43
2023-03-12T18:36:52.108Z,7.40
2023-03-12T18:39:23.645Z,6.97
2023-03-12T18:41:55.692Z,7.38
2023-03-12T18:44:27.200Z,7.80
2023-03-12T18:46:58.816Z,7.07
2023-03-12T18:49:30.295Z,6.50
2023-03-12T18:52:01.867Z,6.75
2023-03-12T18:54:33.335Z,7.68
2023-03-12T18:57:05.120Z,6.28
2023-03-12T18:59:36.576Z,6.32
2023-03-12T19:02:09.233Z,5.30
2023-03-12T19:04:40.697Z,5.38
2023-03-12T19:07:12.180Z,5.93
2023-03-12T19:09:43.675Z,6.60
2023-03-12T19:12:15.117Z,6.28
2023-03-12T19:14:46.573Z,7.32
2023-03-12T19:17:18.030Z,7.55
2023-03-12T19:19:49.692Z,6.95
2023-03-12T19:22:21.173Z,7.35
2023-03-12T19:24:52.647Z,7.50
2023-03-12T19:27:24.197Z,7.07
2023-03-12T19:29:55.670Z,7.55
2023-03-12T19:32:33.261Z,7.65
2023-03-12T19:35:14.128Z,7.57
2023-03-12T19:37:45.597Z,7.50
2023-03-12T19:40:17.090Z,7.90
2023-03-12T19:42:48.498Z,7.65
2023-03-12T19:45:19.934Z,7.00
2023-03-12T19:47:51.360Z,7.13
2023-03-12T19:50:23.031Z,7.97
2023-03-12T19:52:54.481Z,7.43
2023-03-12T19:55:25.956Z,7.57
2023-03-12T19:57:57.555Z,6.50
2023-03-12T20:00:29.786Z,7.78
2023-03-12T20:03:01.435Z,7.72
2023-03-12T20:05:33.207Z,7.07
2023-03-12T20:08:04.856Z,9.07
2023-03-12T20:10:36.284Z,8.48
2023-03-12T20:13:07.878Z,7.93
2023-03-12T20:15:39.346Z,7.40
2023-03-12T20:18:10.818Z,8.00
2023-03-12T20:20:42.695Z,8.05
2023-03-12T20:23:14.197Z,8.07
2023-03-12T20:25:48.787Z,7.53
2023-03-12T20:28:20.214Z,8.13
2023-03-12T20:30:51.925Z,6.93
2023-03-12T20:33:23.393Z,7.57
2023-03-12T20:35:54.902Z,7.72
2023-03-12T20:38:26.348Z,7.38
2023-03-12T20:40:57.804Z,7.05
2023-03-12T20:43:29.300Z,7.50
2023-03-12T20:46:00.730Z,7.72
2023-03-12T20:48:32.239Z,6.18
2023-03-12T20:51:03.946Z,7.28
2023-03-12T20:53:35.459Z,6.82
2023-03-12T20:56:07.480Z,7.40
2023-03-12T20:58:38.950Z,7.40
2023-03-12T21:01:10.875Z,7.25
2023-03-12T21:03:42.417Z,7.35
2023-03-12T21:06:13.833Z,8.00
2023-03-12T21:08:45.303Z,7.40
2023-03-12T21:11:16.794Z,7.68
2023-03-12T21:13:48.284Z,7.63
2023-03-12T21:16:20.072Z,6.78
2023-03-12T21:18:56.302Z,7.13
2023-03-12T21:21:27.777Z,7.28
2023-03-12T21:24:00.502Z,7.78
2023-03-12T21:26:31.959Z,6.93
2023-03-12T21:29:03.983Z,7.75
2023-03-12T21:31:35.614Z,7.30
2023-03-12T21:34:09.394Z,7.13
2023-03-12T21:36:41.103Z,7.32
2023-03-12T21:39:13.283Z,6.93
2023-03-12T21:41:44.743Z,7.53
2023-03-12T21:44:16.773Z,6.68
2023-03-12T21:46:48.247Z,7.15
2023-03-12T21:49:19.742Z,7.13
2023-03-12T21:51:51.179Z,7.03
2023-03-12T21:54:22.663Z,7.37
2023-03-12T21:56:54.120Z,7.85
2023-03-12T21:59:25.553Z,7.77
2023-03-12T22:01:57.702Z,9.10
2023-03-12T22:04:29.306Z,7.97
2023-03-12T22:07:00.744Z,9.25
2023-03-12T22:09:32.170Z,8.68
2023-03-12T22:12:03.922Z,8.17
2023-03-12T22:14:35.336Z,8.15
2023-03-12T22:17:06.816Z,7.82
2023-03-12T22:19:39.912Z,8.55
2023-03-12T22:22:12.368Z,8.75
2023-03-12T22:24:43.804Z,8.48
2023-03-12T22:27:15.252Z,8.88
2023-03-12T22:29:46.720Z,9.13
2023-03-12T22:32:18.326Z,9.15
2023-03-12T22:34:50.167Z,9.07
2023-03-12T22:37:21.652Z,10.00
2023-03-12T22:39:53.139Z,10.15
2023-03-12T22:42:24.539Z,10.02
2023-03-12T22:44:55.956Z,9.90
2023-03-12T22:47:27.420Z,10.07
2023-03-12T22:49:58.917Z,9.82
2023-03-12T22:52:30.331Z,8.98
2023-03-12T22:55:01.753Z,9.43
2023-03-12T22:57:34.204Z,9.38
2023-03-12T23:00:09.701Z,8.97
2023-03-12T23:02:41.189Z,8.73
2023-03-12T23:05:12.594Z,10.18
2023-03-12T23:07:44.320Z,9.13
2023-03-12T23:10:15.926Z,8.77
2023-03-12T23:12:47.407Z,8.68
2023-03-12T23:15:19.872Z,8.98
2023-03-12T23:17:52.563Z,9.63
2023-03-12T23:20:23.952Z,7.75
2023-03-12T23:22:55.424Z,8.40
2023-03-12T23:25:26.851Z,8.10
2023-03-12T23:27:58.277Z,8.43
2023-03-12T23:30:29.756Z,8.10
2023-03-12T23:33:01.451Z,7.45
2023-03-12T23:35:33.034Z,7.60
2023-03-12T23:38:04.601Z,8.00
2023-03-12T23:40:36.043Z,7.13
2023-03-12T23:43:07.508Z,6.95
2023-03-12T23:45:39.260Z,6.60
2023-03-12T23:48:10.841Z,6.88
2023-03-12T23:50:42.258Z,7.05
2023-03-12T23:53:13.702Z,6.88
2023-03-12T23:55:54.881Z,6.55
2023-03-12T23:58:26.792Z,7.53
